Warroad, MN

23:02 CST le 09 décembre 2016 (GMT -0600)
Warroad International-Carlson | | Change Station
Avis météorologiques actifs: Wind Chill Advisory

Alt. 1073 ft 48.94 °N, 95.35 °W | Updated 8 minutes ago

Partiellement nuageux
Partiellement nuageux
-6 ° F
Paraît -14 ° F
N
4
Vent Variable Vent de OSO

Aujourd'hui
Haut(e) -- | Bas -- ° F
--% Risque de précip.
Hier
Haut(e) -- | Bas -- ° F
Precip. -- pouce
Pression 30.48 pouce
Visibilité 10.0 Miles terrestres
Nuages Nuageux 3200 ft
Refroidissement éolien -14 ° F
Point de rosée -9 ° F
Humidité 84%
Précipitations 0.00 pouce
Profondeur de la couche neigeuse Non disponible.
8:03 AM 4:24 PM
Lune gibbeuse croissante, 80% visible
METAR KRRT 100454Z AUTO 25003KT 10SM BKN032 M21/M23 A3048 RMK AO2
Pression 30.48 pouce
Visibilité 10.0 Miles terrestres
Nuages Nuageux 3200 ft
Refroidissement éolien -14 ° F
Point de rosée -9 ° F
Humidité 84%
Précipitations 0.00 pouce
Profondeur de la couche neigeuse Non disponible.
8:03 AM 4:24 PM
Lune gibbeuse croissante, 80% visible
METAR KRRT 100454Z AUTO 25003KT 10SM BKN032 M21/M23 A3048 RMK AO2

10-Day Weather Forecast

Almanac

Astronomie

Dec. 09, 2016 Lever Coucher
Temps réel
Crépuscule civil
Crépuscule nautique
Crépuscule astronomique
Lune
Durée de lumière visible
Longueur du jour
Tomorrow will be .
, % of the Moon is Illuminated

Extrêmes aujourd'hui

State Highs State Lows

Community

WunderPhotos

Upload Photos

1,956,529 Photos téléchargées !

WunderBlog® & News

Nearby

Qualité de l'air

  Qualité de l'air Indice de la qualité de l'air Polluant
Not available.

Épaisseur de neige

Station Depth Altitude

Activité sismique

Ville Distance Mag. Time & Date
Minimum magnitude displayed is 2.5.

Températures des eaux côtières

Lieu Température

Stations

Stations météo à proximité

Emplacement de la station Température Refroidissement éolien Point de rosée Humidité Vent Precip. Alt. Mise à jour Type
                   

Watches & Warnings

Wind Chill Advisory
Issued: 22:17 CST Dec. 9, 2016 – National Weather Service

... Wind Chill Advisory remains in effect until noon CST
Saturday...

* wind chill values... expect wind chills to range from 15 below
zero to 25 below zero until noon Saturday... with the coldest
wind chills occurring around 5 am Saturday.



Precautionary/preparedness actions...

A Wind Chill Advisory means that cold air and the wind will
combine to create low wind chills. Frost bite and hypothermia can
occur if precautions are not taken. Make sure you wear a hat and
gloves.